Ainsworth, Iowa
Current Conditions -  °F | °C
As of 12:35 PM on Saturday 20 Dec 2014 (Local Time) from KAWG Reporting Station
Haze Haze  
Wind Chill: 28°   Ceiling: 900
Heat Index: 34°   Visibility: 2mi
Dew Point: 34°   Wind: 7mph
Humidity: 100%   Direction: 160°SSE
Pressure: 30.2"   Gusts: NA
Location:  41.29°N, 91.55°W
Report Text: KAWG 201835Z AUTO 16006KT 2SM BR BKN009 BKN015 BKN021 01/01 A3020 RMK AO2
Loading
Personal Weather Stations






























Interactive Weather Map New forecast layout! Learn more

10-Day Weather Forecast

Advertisements
Track Severe Weather on mobile